Morningdale, Massachusetts
Current Conditions -  °F | °C
As of 8:54 AM on Monday 20 Oct 2014 (Local Time) from KORH Reporting Station
Scattered Clouds Scattered Clouds  
Wind Chill: 30°   Ceiling: Unl
Heat Index: 37°   Visibility: 10mi
Dew Point: 28°   Wind: 9mph
Humidity: 70%   Direction: 250°WSW
Pressure: 30.04"   Gusts: 17mph
Location:  42.3502°N, 71.718°W
Report Text: KORH 201254Z 25008G15KT 10SM SCT120 03/M02 A3004 RMK AO2 SLP179 T00281022
Loading
Personal Weather Stations






























Interactive Weather Map
Tropical Storm Tracking
New forecast layout! Learn more

10-Day Weather Forecast

Advertisements
Track Severe Weather on mobile